Time;durP1;ratioP1;P1;durP2;ratioP2;P2;SDS_P1;SDS_P2;PMS_P1;PMS_P2;Temp;Humidity;BMP_temperature;BMP_pressure;BME280_temperature;BME280_humidity;BME280_pressure;Samples;Min_cycle;Max_cycle;Signal;HPM_P1;HPM_P2
2022/08/29 00:01:27;;;;;;;4.93;2.95;;;15.40;99.90;;;;;;4967703;28;20046;-72
2022/08/29 00:03:54;;;;;;;6.68;3.38;;;15.50;99.90;;;;;;5006287;28;20571;-72
2022/08/29 00:06:20;;;;;;;8.73;3.10;;;15.40;99.90;;;;;;4987724;28;20066;-72
2022/08/29 00:08:46;;;;;;;6.22;2.92;;;15.40;99.90;;;;;;5004467;28;20492;-73
2022/08/29 00:11:12;;;;;;;7.75;3.40;;;15.40;99.90;;;;;;5005267;28;20045;-72
2022/08/29 00:13:39;;;;;;;6.88;3.33;;;15.30;99.90;;;;;;4988378;28;20046;-73
2022/08/29 00:16:05;;;;;;;11.68;3.30;;;15.30;99.90;;;;;;5004034;28;20093;-72
2022/08/29 00:18:31;;;;;;;5.93;3.38;;;15.30;99.90;;;;;;4989559;28;20497;-72
2022/08/29 00:20:57;;;;;;;7.40;3.17;;;15.30;99.90;;;;;;4988285;28;20050;-72
2022/08/29 00:23:23;;;;;;;8.00;3.42;;;15.30;99.90;;;;;;4986957;28;20489;-72
2022/08/29 00:25:48;;;;;;;6.05;3.05;;;15.40;99.90;;;;;;4988492;28;20519;-72
2022/08/29 00:28:14;;;;;;;5.57;3.10;;;15.40;99.90;;;;;;5005012;28;20508;-72
2022/08/29 00:30:40;;;;;;;11.95;3.33;;;15.40;99.90;;;;;;4988838;28;20838;-72
2022/08/29 00:33:06;;;;;;;9.23;3.63;;;15.50;99.90;;;;;;5003026;28;20046;-72
2022/08/29 00:35:36;;;;;;;6.03;3.10;;;15.50;99.90;;;;;;4987689;28;20041;-72
2022/08/29 00:38:03;;;;;;;8.75;3.10;;;15.50;99.90;;;;;;4987402;28;20045;-72
2022/08/29 00:40:35;;;;;;;7.60;3.20;;;15.50;99.90;;;;;;4988346;28;20041;-72
2022/08/29 00:43:02;;;;;;;8.02;3.70;;;15.50;99.90;;;;;;4988698;28;20049;-72
2022/08/29 00:45:28;;;;;;;6.55;3.35;;;15.50;99.90;;;;;;5005092;28;20050;-72
2022/08/29 00:48:03;;;;;;;9.65;3.33;;;15.60;99.90;;;;;;5004491;28;20405;-72
2022/08/29 00:50:37;;;;;;;6.78;3.33;;;15.60;99.90;;;;;;4987091;28;20061;-72
2022/08/29 00:53:06;;;;;;;9.00;3.90;;;15.60;99.90;;;;;;4988297;28;20069;-72
2022/08/29 00:55:35;;;;;;;6.82;3.33;;;15.50;99.90;;;;;;4988126;28;20075;-72
2022/08/29 00:58:07;;;;;;;7.07;3.72;;;15.50;99.90;;;;;;4987440;28;20049;-72
2022/08/29 01:00:33;;;;;;;9.93;3.90;;;15.50;99.90;;;;;;4999268;28;20288;-72
2022/08/29 01:02:59;;;;;;;7.03;3.63;;;15.50;99.90;;;;;;4987569;28;20049;-72
2022/08/29 01:05:25;;;;;;;7.45;3.30;;;15.50;99.90;;;;;;4986944;28;20041;-72
2022/08/29 01:07:51;;;;;;;6.30;3.30;;;15.60;99.90;;;;;;4988457;28;20045;-72
2022/08/29 01:13:03;;;;;;;9.05;4.13;;;15.50;99.90;;;;;;5001958;28;20042;-72
2022/08/29 01:15:31;;;;;;;9.88;3.65;;;15.50;99.90;;;;;;4987478;28;20392;-72
2022/08/29 01:17:58;;;;;;;8.23;3.63;;;15.50;99.90;;;;;;4988946;28;20492;-72
2022/08/29 01:20:56;;;;;;;6.38;3.33;;;15.50;99.90;;;;;;5001919;28;20045;-73
2022/08/29 01:23:40;;;;;;;6.55;3.78;;;15.50;99.90;;;;;;4985603;28;20050;-72
2022/08/29 01:26:08;;;;;;;5.57;3.28;;;15.50;99.90;;;;;;4987752;28;20072;-72
2022/08/29 01:28:38;;;;;;;6.88;3.45;;;15.50;99.90;;;;;;4985899;28;20041;-72
2022/08/29 01:31:14;;;;;;;10.77;3.60;;;15.50;99.90;;;;;;5003266;28;20033;-72
2022/08/29 01:33:45;;;;;;;9.50;3.88;;;15.50;99.90;;;;;;5001658;28;20037;-72
2022/08/29 01:36:15;;;;;;;5.78;3.50;;;15.50;99.90;;;;;;5003715;28;20042;-72
2022/08/29 01:38:41;;;;;;;8.02;3.60;;;15.50;99.90;;;;;;5003465;28;20034;-72
2022/08/29 01:41:09;;;;;;;6.90;4.13;;;15.50;99.90;;;;;;4984964;28;20045;-72
2022/08/29 01:43:43;;;;;;;8.00;3.97;;;15.50;99.90;;;;;;4986542;28;20087;-72
2022/08/29 01:46:13;;;;;;;6.90;3.35;;;15.50;99.90;;;;;;5005404;28;20038;-72
2022/08/29 01:48:41;;;;;;;7.97;3.53;;;15.50;99.90;;;;;;4982631;28;20069;-72
2022/08/29 01:51:07;;;;;;;6.63;3.75;;;15.50;99.90;;;;;;4985574;28;20141;-72
2022/08/29 01:53:33;;;;;;;7.43;3.72;;;15.50;99.90;;;;;;4987720;28;20037;-72
2022/08/29 01:55:59;;;;;;;7.30;3.60;;;15.60;99.90;;;;;;4983714;28;20034;-72
2022/08/29 01:58:25;;;;;;;7.07;3.80;;;15.50;99.90;;;;;;4985922;28;20041;-72
2022/08/29 02:00:51;;;;;;;7.65;3.83;;;15.50;99.90;;;;;;5001400;28;20187;-72
2022/08/29 02:03:17;;;;;;;8.35;3.65;;;15.60;99.90;;;;;;4986324;28;20537;-72
2022/08/29 02:05:46;;;;;;;7.13;3.47;;;15.60;99.90;;;;;;5002156;28;20038;-72
2022/08/29 02:08:12;;;;;;;8.60;3.80;;;15.60;99.90;;;;;;4985331;28;20041;-72
2022/08/29 02:10:37;;;;;;;6.57;3.70;;;15.60;99.90;;;;;;4987456;28;20100;-72
2022/08/29 02:13:04;;;;;;;6.30;3.40;;;15.60;99.90;;;;;;4986362;28;20074;-72
2022/08/29 02:15:29;;;;;;;9.40;3.47;;;15.60;99.90;;;;;;5003404;28;20121;-72
2022/08/29 02:17:55;;;;;;;8.65;3.70;;;15.60;99.90;;;;;;4985593;28;20120;-72
2022/08/29 02:20:21;;;;;;;8.48;4.13;;;15.60;99.90;;;;;;4985495;28;20037;-73
2022/08/29 02:22:47;;;;;;;7.43;3.78;;;15.60;99.90;;;;;;4983840;28;20096;-72
2022/08/29 02:25:46;;;;;;;6.60;3.88;;;15.60;99.90;;;;;;5003665;28;20061;-72
2022/08/29 02:28:04;;;;;;;10.40;3.77;;;15.60;99.90;;;;;;4983173;28;20050;-72
2022/08/29 02:30:30;;;;;;;8.98;3.53;;;15.60;99.90;;;;;;5002706;28;20033;-72
2022/08/29 02:32:56;;;;;;;7.05;3.60;;;15.60;99.90;;;;;;4983497;28;20129;-72
2022/08/29 02:35:22;;;;;;;8.52;4.10;;;15.60;99.90;;;;;;4982529;28;20089;-73
2022/08/29 02:37:47;;;;;;;9.98;4.28;;;15.60;99.90;;;;;;4981970;28;20049;-72
2022/08/29 02:40:13;;;;;;;8.73;3.95;;;15.60;99.90;;;;;;4984666;28;20046;-72
2022/08/29 02:42:39;;;;;;;7.57;4.00;;;15.60;99.90;;;;;;4984930;28;20049;-73
2022/08/29 02:45:05;;;;;;;8.05;4.20;;;15.60;99.90;;;;;;5000619;28;20171;-72
2022/08/29 02:47:35;;;;;;;7.35;3.90;;;15.60;99.90;;;;;;4983514;28;20086;-72
2022/08/29 02:50:06;;;;;;;7.40;4.10;;;15.60;99.90;;;;;;4986726;28;20034;-72
2022/08/29 02:52:32;;;;;;;6.15;3.85;;;15.60;99.90;;;;;;5000108;28;20121;-72
2022/08/29 02:54:57;;;;;;;7.85;3.67;;;15.60;99.90;;;;;;4985443;28;20034;-73
2022/08/29 02:57:23;;;;;;;10.75;4.53;;;15.60;99.90;;;;;;4985653;28;20065;-72
2022/08/29 02:59:49;;;;;;;11.50;4.60;;;15.60;99.90;;;;;;4985172;28;20042;-72
2022/08/29 03:02:15;;;;;;;11.60;4.43;;;15.60;99.90;;;;;;4984384;28;20095;-72
2022/08/29 03:04:40;;;;;;;9.68;4.15;;;15.60;99.90;;;;;;4989644;28;20038;-72
2022/08/29 03:07:06;;;;;;;9.07;4.43;;;15.60;99.90;;;;;;4984345;28;20034;-72
2022/08/29 03:09:32;;;;;;;9.85;4.50;;;15.60;99.90;;;;;;4985496;28;20121;-72
2022/08/29 03:11:57;;;;;;;10.30;4.35;;;15.60;99.90;;;;;;5008806;28;20066;-73
2022/08/29 03:14:24;;;;;;;6.47;4.35;;;15.60;99.90;;;;;;4984603;28;20043;-72
2022/08/29 03:16:50;;;;;;;7.45;4.47;;;15.60;99.90;;;;;;4985092;28;20046;-72
2022/08/29 03:19:17;;;;;;;10.93;4.53;;;15.60;99.90;;;;;;4984865;28;20034;-72
2022/08/29 03:21:43;;;;;;;8.85;4.38;;;15.60;99.90;;;;;;4984901;28;20050;-72
2022/08/29 03:24:08;;;;;;;5.55;3.92;;;15.60;99.90;;;;;;4984398;28;20136;-72
2022/08/29 03:26:34;;;;;;;8.57;4.80;;;15.60;99.90;;;;;;5002542;28;20129;-72
2022/08/29 03:29:00;;;;;;;6.90;4.18;;;15.60;99.90;;;;;;4983338;28;20080;-72
2022/08/29 03:31:26;;;;;;;6.47;3.95;;;15.50;99.90;;;;;;5004178;28;20074;-72
2022/08/29 03:33:51;;;;;;;8.73;4.80;;;15.60;99.90;;;;;;4982060;28;20038;-72
2022/08/29 03:36:17;;;;;;;5.93;4.03;;;15.50;99.90;;;;;;4985392;28;20037;-72
2022/08/29 03:38:45;;;;;;;11.32;4.82;;;15.50;99.90;;;;;;4985328;28;20041;-73
2022/08/29 03:41:19;;;;;;;9.32;4.32;;;15.50;99.90;;;;;;4985560;28;20041;-73
2022/08/29 03:43:44;;;;;;;9.63;4.00;;;15.50;99.90;;;;;;5001773;28;20716;-72
2022/08/29 03:46:10;;;;;;;7.28;3.90;;;15.50;99.90;;;;;;4985110;28;20125;-72
2022/08/29 03:48:36;;;;;;;7.60;4.55;;;15.50;99.90;;;;;;4985018;28;20045;-72
2022/08/29 03:51:01;;;;;;;5.50;3.60;;;15.50;99.90;;;;;;4969619;28;20076;-72
2022/08/29 03:53:27;;;;;;;6.90;4.03;;;15.50;99.90;;;;;;5001354;28;20048;-72
2022/08/29 03:55:53;;;;;;;7.85;4.50;;;15.50;99.90;;;;;;4984694;28;20096;-72
2022/08/29 03:58:19;;;;;;;7.32;4.28;;;15.50;99.90;;;;;;4985684;28;20042;-72
2022/08/29 04:00:45;;;;;;;7.70;3.72;;;15.50;99.90;;;;;;5005568;28;20041;-72
2022/08/29 04:03:11;;;;;;;10.55;4.28;;;15.50;99.90;;;;;;5005044;28;20069;-72
2022/08/29 04:05:37;;;;;;;9.95;3.72;;;15.50;99.90;;;;;;5007254;28;20100;-72
2022/08/29 04:08:03;;;;;;;7.50;4.05;;;15.50;99.90;;;;;;4987832;28;20193;-72
2022/08/29 04:10:32;;;;;;;6.68;4.25;;;15.40;99.90;;;;;;5006482;28;20037;-72
2022/08/29 04:12:59;;;;;;;7.15;4.15;;;15.40;99.90;;;;;;5005044;28;20459;-72
2022/08/29 04:15:27;;;;;;;7.03;4.07;;;15.40;99.90;;;;;;4987586;28;20053;-72
2022/08/29 04:17:56;;;;;;;12.68;4.40;;;15.40;99.90;;;;;;4987148;28;20085;-72
2022/08/29 04:20:24;;;;;;;5.55;3.70;;;15.30;99.90;;;;;;5006370;28;20088;-72
2022/08/29 04:22:50;;;;;;;9.55;4.22;;;15.30;99.90;;;;;;4987704;28;20046;-72
2022/08/29 04:25:16;;;;;;;7.00;4.00;;;15.20;99.90;;;;;;4986151;28;20052;-72
2022/08/29 04:27:43;;;;;;;12.80;4.20;;;15.20;99.90;;;;;;4987466;28;20073;-72
2022/08/29 04:30:13;;;;;;;8.27;4.28;;;15.20;99.90;;;;;;4988631;28;20046;-72
2022/08/29 04:32:38;;;;;;;9.63;4.43;;;15.10;99.90;;;;;;4988299;28;20038;-72
2022/08/29 04:35:05;;;;;;;9.25;4.22;;;15.10;99.90;;;;;;4988408;28;20100;-72
2022/08/29 04:37:31;;;;;;;10.75;4.90;;;15.10;99.90;;;;;;4988582;28;20099;-72
2022/08/29 04:39:57;;;;;;;8.80;4.30;;;15.10;99.90;;;;;;4985465;28;20041;-72
2022/08/29 04:42:23;;;;;;;6.72;4.18;;;15.00;99.90;;;;;;5003731;28;20042;-72
2022/08/29 04:44:49;;;;;;;8.88;4.40;;;15.10;99.90;;;;;;5004097;28;20064;-72
2022/08/29 04:47:15;;;;;;;10.77;4.72;;;15.00;99.90;;;;;;5003597;28;20136;-72
2022/08/29 04:49:41;;;;;;;9.68;4.00;;;15.10;99.90;;;;;;5005252;28;20092;-72
2022/08/29 04:52:08;;;;;;;7.97;4.47;;;15.00;99.90;;;;;;4973387;28;20056;-72
2022/08/29 04:54:33;;;;;;;7.38;4.18;;;15.00;99.90;;;;;;4972368;28;20038;-72
2022/08/29 04:57:02;;;;;;;7.50;3.95;;;15.10;99.90;;;;;;4972607;28;20045;-72
2022/08/29 04:59:29;;;;;;;8.15;3.85;;;15.00;99.90;;;;;;4986902;28;20132;-72
2022/08/29 05:01:55;;;;;;;6.93;3.92;;;15.00;99.90;;;;;;4987183;28;20054;-72
2022/08/29 05:04:20;;;;;;;8.15;4.00;;;15.00;99.90;;;;;;5004312;28;20037;-72
2022/08/29 05:06:46;;;;;;;7.30;3.88;;;15.00;99.90;;;;;;4986446;28;20096;-72
2022/08/29 05:09:12;;;;;;;8.30;4.15;;;14.90;99.90;;;;;;4971266;28;20042;-73
2022/08/29 05:11:39;;;;;;;8.23;3.90;;;15.00;99.90;;;;;;4986033;28;20483;-72
2022/08/29 05:14:05;;;;;;;11.30;3.97;;;15.00;99.90;;;;;;4987856;28;20038;-72
2022/08/29 05:16:35;;;;;;;7.80;4.13;;;15.00;99.90;;;;;;5003576;28;20128;-72
2022/08/29 05:19:03;;;;;;;8.20;4.28;;;15.10;99.90;;;;;;5003164;28;20132;-72
2022/08/29 05:21:31;;;;;;;10.40;4.03;;;15.10;99.90;;;;;;4982788;28;21029;-72
2022/08/29 05:23:58;;;;;;;12.05;4.68;;;15.10;99.90;;;;;;5002231;28;20037;-72
2022/08/29 05:26:30;;;;;;;9.60;4.32;;;15.10;99.90;;;;;;5001883;28;20504;-72
2022/08/29 05:28:55;;;;;;;11.60;4.93;;;15.10;99.90;;;;;;4985186;28;20042;-72
2022/08/29 05:31:21;;;;;;;9.50;4.53;;;15.20;99.90;;;;;;4983552;28;20044;-72
2022/08/29 05:33:47;;;;;;;9.07;4.70;;;15.10;99.90;;;;;;5002693;28;20046;-72
2022/08/29 05:36:13;;;;;;;8.38;4.10;;;15.20;99.90;;;;;;4982806;28;20497;-72
2022/08/29 05:38:39;;;;;;;9.25;4.80;;;15.20;99.90;;;;;;4983765;28;20042;-72
2022/08/29 05:41:06;;;;;;;11.40;4.63;;;15.20;99.90;;;;;;4983204;28;20112;-72
2022/08/29 05:43:33;;;;;;;8.45;4.72;;;15.20;99.90;;;;;;5004249;28;20094;-73
2022/08/29 05:46:04;;;;;;;9.23;4.40;;;15.20;99.90;;;;;;5005246;28;20125;-72
2022/08/29 05:48:31;;;;;;;12.13;4.45;;;15.30;99.90;;;;;;4987644;28;20100;-72
2022/08/29 05:50:57;;;;;;;12.38;4.20;;;15.30;99.90;;;;;;5004217;28;20038;-72
2022/08/29 05:53:23;;;;;;;8.60;4.30;;;15.40;99.90;;;;;;4985907;28;20517;-72
2022/08/29 05:55:49;;;;;;;11.10;4.72;;;15.40;99.90;;;;;;4988018;28;20064;-72
2022/08/29 05:58:14;;;;;;;12.60;4.40;;;15.50;99.90;;;;;;4987521;28;20492;-72
2022/08/29 06:00:42;;;;;;;10.32;4.30;;;15.50;99.90;;;;;;4999032;28;20551;-72
2022/08/29 06:03:08;;;;;;;8.00;4.20;;;15.50;99.90;;;;;;4985283;28;20119;-72
2022/08/29 06:05:34;;;;;;;7.28;3.72;;;15.60;99.90;;;;;;5003116;28;20053;-72
2022/08/29 06:08:00;;;;;;;7.95;3.90;;;15.80;99.90;;;;;;5000700;28;20054;-72
2022/08/29 06:10:26;;;;;;;9.00;3.70;;;15.80;99.90;;;;;;4985044;28;20499;-72
2022/08/29 06:12:52;;;;;;;13.18;4.15;;;15.90;99.90;;;;;;4983766;28;20119;-72
2022/08/29 06:15:17;;;;;;;9.80;4.00;;;16.00;99.90;;;;;;4986059;28;20038;-72
2022/08/29 06:17:43;;;;;;;6.28;4.00;;;16.10;99.90;;;;;;4985107;28;21896;-72
2022/08/29 06:20:09;;;;;;;13.95;4.10;;;16.20;99.90;;;;;;5001042;28;21709;-72
2022/08/29 06:22:36;;;;;;;9.18;4.10;;;16.30;99.90;;;;;;4981790;28;20029;-72
2022/08/29 06:25:03;;;;;;;8.93;4.40;;;16.30;99.90;;;;;;5000659;28;20389;-72
2022/08/29 06:27:29;;;;;;;9.88;4.28;;;16.40;99.90;;;;;;4984665;28;22962;-72
2022/08/29 06:29:55;;;;;;;7.55;3.95;;;16.50;99.90;;;;;;4984610;28;20034;-72
2022/08/29 06:32:20;;;;;;;9.90;4.40;;;16.50;99.90;;;;;;5000696;28;20125;-72
2022/08/29 06:34:46;;;;;;;12.20;4.57;;;16.60;99.90;;;;;;4984673;28;20073;-72
2022/08/29 06:37:12;;;;;;;11.40;4.32;;;16.60;99.90;;;;;;4997728;28;20041;-72
2022/08/29 06:39:37;;;;;;;7.53;3.97;;;16.70;99.90;;;;;;4983779;28;20053;-72
2022/08/29 06:42:03;;;;;;;13.98;4.50;;;16.70;99.90;;;;;;4984719;28;20042;-72
2022/08/29 06:44:30;;;;;;;12.30;4.63;;;16.80;99.90;;;;;;5000231;28;20089;-72
2022/08/29 06:46:56;;;;;;;8.85;3.92;;;16.90;99.90;;;;;;4984787;28;20397;-71
2022/08/29 06:49:23;;;;;;;11.70;4.28;;;16.90;99.90;;;;;;4982888;28;20042;-72
2022/08/29 06:51:51;;;;;;;8.48;3.83;;;17.10;99.90;;;;;;4999056;28;20560;-72
2022/08/29 06:54:22;;;;;;;12.68;4.35;;;17.10;99.90;;;;;;4983004;28;20437;-71
2022/08/29 06:56:49;;;;;;;11.90;4.07;;;17.20;99.90;;;;;;4999904;28;20445;-71
2022/08/29 06:59:16;;;;;;;10.77;4.22;;;17.30;99.90;;;;;;4983550;28;20463;-72
2022/08/29 07:01:43;;;;;;;9.43;3.95;;;17.40;99.90;;;;;;4981627;28;20424;-72
2022/08/29 07:04:10;;;;;;;11.43;3.97;;;17.40;99.90;;;;;;4982275;28;20456;-71
2022/08/29 07:06:36;;;;;;;11.32;4.15;;;17.50;99.90;;;;;;4985039;28;20485;-71
2022/08/29 07:09:03;;;;;;;9.20;4.20;;;17.60;99.90;;;;;;4981650;28;20416;-72
2022/08/29 07:11:30;;;;;;;9.10;3.78;;;17.70;99.90;;;;;;5001283;28;20100;-71
2022/08/29 07:14:03;;;;;;;8.52;3.53;;;17.80;99.90;;;;;;5000598;28;21647;-71
2022/08/29 07:16:28;;;;;;;12.10;3.92;;;17.80;99.90;;;;;;4982428;28;20092;-72
2022/08/29 07:18:54;;;;;;;11.88;4.03;;;17.80;99.90;;;;;;5000951;28;20045;-71
2022/08/29 07:21:22;;;;;;;11.93;3.83;;;17.90;99.90;;;;;;4985885;28;20042;-72
2022/08/29 07:23:49;;;;;;;11.27;3.88;;;17.90;99.90;;;;;;5004730;28;22156;-71
2022/08/29 07:26:25;;;;;;;9.98;3.72;;;18.00;99.90;;;;;;4991587;28;20060;-72
2022/08/29 07:28:53;;;;;;;9.00;3.60;;;18.10;99.90;;;;;;4984310;28;20509;-72
2022/08/29 07:31:19;;;;;;;8.75;3.75;;;18.10;99.90;;;;;;4991322;28;20037;-72
2022/08/29 07:33:45;;;;;;;12.15;3.85;;;18.20;99.90;;;;;;5004947;28;20095;-72
2022/08/29 07:36:11;;;;;;;14.57;3.50;;;18.20;99.90;;;;;;4994661;28;20038;-72
2022/08/29 07:38:38;;;;;;;12.13;3.30;;;18.30;99.90;;;;;;5011190;28;20169;-72
2022/08/29 07:41:06;;;;;;;8.48;2.83;;;18.30;99.90;;;;;;5012306;28;20081;-72
2022/08/29 07:43:32;;;;;;;12.35;3.05;;;18.40;99.90;;;;;;5010298;28;20128;-72
2022/08/29 07:46:04;;;;;;;8.27;2.72;;;18.50;99.90;;;;;;4993022;28;20117;-72
2022/08/29 07:48:29;;;;;;;8.57;2.90;;;18.50;99.90;;;;;;4995271;28;20056;-72
2022/08/29 07:50:55;;;;;;;7.55;2.40;;;18.60;99.90;;;;;;5011817;28;20121;-72
2022/08/29 07:53:21;;;;;;;7.47;2.15;;;18.60;99.90;;;;;;4995497;28;20042;-72
2022/08/29 07:55:47;;;;;;;8.80;2.53;;;18.70;99.90;;;;;;4991864;28;20045;-72
2022/08/29 07:58:12;;;;;;;7.85;2.50;;;18.70;99.90;;;;;;5012284;28;20046;-72
2022/08/29 08:00:38;;;;;;;13.70;2.50;;;18.70;99.90;;;;;;5008196;28;20045;-72
2022/08/29 08:03:04;;;;;;;7.97;2.55;;;18.90;99.90;;;;;;5008740;28;20042;-72
2022/08/29 08:05:29;;;;;;;10.68;2.38;;;18.90;99.90;;;;;;5015201;28;20049;-72
2022/08/29 08:07:55;;;;;;;9.75;2.63;;;19.00;99.90;;;;;;4994136;28;20056;-72
2022/08/29 08:10:21;;;;;;;13.48;2.85;;;19.10;99.90;;;;;;4987109;28;20077;-72
2022/08/29 08:12:47;;;;;;;8.85;2.50;;;19.20;99.90;;;;;;5008389;28;20061;-72
2022/08/29 08:15:14;;;;;;;10.35;2.80;;;19.20;99.90;;;;;;5001701;28;20043;-72
2022/08/29 08:17:40;;;;;;;9.35;3.22;;;19.30;99.90;;;;;;5006952;28;20720;-71
2022/08/29 08:20:07;;;;;;;15.52;3.40;;;19.40;99.90;;;;;;5007688;28;20034;-72
2022/08/29 08:22:33;;;;;;;11.52;3.25;;;19.40;99.90;;;;;;4988242;28;20038;-71
2022/08/29 08:24:59;;;;;;;10.30;2.78;;;19.50;99.90;;;;;;4988119;28;20037;-71
2022/08/29 08:27:25;;;;;;;11.80;3.05;;;19.60;99.90;;;;;;4986534;28;20029;-72
2022/08/29 08:29:50;;;;;;;12.43;3.15;;;19.70;99.90;;;;;;4987618;28;20129;-72
2022/08/29 08:32:16;;;;;;;20.20;3.80;;;19.80;99.90;;;;;;4985364;28;20042;-72
2022/08/29 08:34:42;;;;;;;10.50;2.90;;;19.90;99.90;;;;;;4985344;28;20062;-71
2022/08/29 08:37:09;;;;;;;8.07;2.85;;;20.10;99.90;;;;;;4998798;28;20052;-71
2022/08/29 08:39:36;;;;;;;10.82;2.83;;;20.30;99.90;;;;;;4971174;28;20119;-72
2022/08/29 08:42:13;;;;;;;11.90;3.33;;;20.50;99.90;;;;;;4985852;28;20056;-72
2022/08/29 08:44:38;;;;;;;10.00;2.80;;;20.60;99.90;;;;;;4986488;28;20100;-71
2022/08/29 08:47:06;;;;;;;7.32;2.58;;;20.70;99.90;;;;;;4988888;28;20374;-72
2022/08/29 08:49:45;;;;;;;9.15;2.92;;;20.70;99.90;;;;;;4987668;28;20053;-71
2022/08/29 08:52:22;;;;;;;7.95;2.60;;;20.70;99.90;;;;;;4983991;28;20057;-72
2022/08/29 08:54:54;;;;;;;9.20;2.88;;;20.60;99.90;;;;;;5008247;28;20033;-72
2022/08/29 08:57:21;;;;;;;10.77;2.78;;;20.60;99.90;;;;;;4986812;28;20116;-71
2022/08/29 08:59:55;;;;;;;9.90;2.95;;;20.60;99.90;;;;;;5008355;28;20524;-71
2022/08/29 09:03:01;;;;;;;7.97;2.40;;;20.60;99.90;;;;;;4992295;28;20038;-71
2022/08/29 09:05:47;;;;;;;7.53;2.53;;;20.70;99.90;;;;;;4986191;28;20077;-72
2022/08/29 09:08:20;;;;;;;11.35;3.03;;;20.70;99.90;;;;;;5003805;28;20050;-72
2022/08/29 09:11:21;;;;;;;10.40;2.65;;;20.70;99.90;;;;;;4992672;28;20505;-72
2022/08/29 09:14:07;;;;;;;12.30;2.67;;;20.70;99.90;;;;;;4968053;28;20115;-72
2022/08/29 09:16:39;;;;;;;9.82;2.45;;;20.70;99.90;;;;;;5012124;28;20040;-72
2022/08/29 09:19:09;;;;;;;8.55;2.60;;;20.80;99.90;;;;;;4995617;28;20046;-72
2022/08/29 09:22:04;;;;;;;8.10;2.47;;;20.90;99.90;;;;;;4993996;28;20052;-72
2022/08/29 09:25:01;;;;;;;8.32;2.53;;;21.00;99.90;;;;;;4972843;28;20053;-72
2022/08/29 09:27:29;;;;;;;11.25;2.63;;;21.00;99.90;;;;;;4989775;28;20107;-72
2022/08/29 09:30:29;;;;;;;8.77;2.42;;;21.10;99.90;;;;;;4987084;28;20050;-72
2022/08/29 09:33:00;;;;;;;12.02;3.00;;;21.30;99.90;;;;;;4975374;28;20108;-72
2022/08/29 09:35:35;;;;;;;10.85;2.53;;;21.40;99.90;;;;;;5003832;28;20042;-72
2022/08/29 09:38:05;;;;;;;7.93;2.55;;;21.50;99.90;;;;;;4988569;28;20571;-72
2022/08/29 09:41:06;;;;;;;9.23;2.47;;;21.60;99.90;;;;;;5001366;28;20040;-72
2022/08/29 09:43:38;;;;;;;9.80;2.42;;;21.90;99.90;;;;;;4986201;28;20053;-72
2022/08/29 09:46:10;;;;;;;8.57;2.60;;;21.90;99.90;;;;;;4988075;28;20048;-72
2022/08/29 09:49:11;;;;;;;7.28;2.50;;;22.00;99.90;;;;;;4999499;28;20587;-72
2022/08/29 09:51:40;;;;;;;7.63;2.83;;;22.10;99.90;;;;;;4988235;28;20049;-72
2022/08/29 09:54:32;;;;;;;10.00;3.17;;;22.20;99.90;;;;;;4989158;28;20049;-72
2022/08/29 09:57:04;;;;;;;12.52;3.17;;;22.30;99.90;;;;;;4981207;28;20053;-72
2022/08/29 09:59:33;;;;;;;7.00;2.30;;;22.50;99.90;;;;;;4982060;28;20073;-72
2022/08/29 10:02:25;;;;;;;8.77;2.58;;;22.70;99.90;;;;;;4975862;28;20145;-72
2022/08/29 10:04:59;;;;;;;11.30;2.85;;;23.00;99.90;;;;;;4989614;28;20048;-72
2022/08/29 10:07:31;;;;;;;8.73;2.70;;;23.30;99.90;;;;;;5010855;28;20173;-72
2022/08/29 10:10:05;;;;;;;10.07;3.03;;;23.60;99.90;;;;;;5001851;28;20954;-72
2022/08/29 10:12:39;;;;;;;6.28;2.17;;;23.70;99.90;;;;;;4984486;28;20073;-72
2022/08/29 10:15:10;;;;;;;6.22;2.22;;;23.80;99.90;;;;;;4986331;28;20042;-72
2022/08/29 10:21:11;;;;;;;6.95;2.67;;;24.00;99.90;;;;;;4988874;28;20086;-72
2022/08/29 10:23:58;;;;;;;7.50;2.58;;;24.20;99.90;;;;;;4981092;28;20057;-72
2022/08/29 10:26:42;;;;;;;6.47;2.50;;;24.40;99.90;;;;;;4978590;28;20054;-72
2022/08/29 10:29:29;;;;;;;8.10;2.45;;;24.50;99.90;;;;;;4984176;28;20053;-73
2022/08/29 10:32:13;;;;;;;8.60;2.50;;;24.40;99.90;;;;;;4984653;28;20042;-73
2022/08/29 10:35:01;;;;;;;11.23;2.67;;;24.30;99.90;;;;;;4974659;28;20038;-72
2022/08/29 10:37:29;;;;;;;6.63;2.53;;;24.30;99.90;;;;;;4987246;28;20042;-72
2022/08/29 10:40:05;;;;;;;8.68;2.53;;;24.30;99.90;;;;;;4984061;28;20136;-72
2022/08/29 10:42:35;;;;;;;8.45;2.55;;;24.60;99.90;;;;;;5009033;28;20620;-72
2022/08/29 10:45:08;;;;;;;8.65;2.67;;;24.50;99.90;;;;;;4990427;28;20033;-72
2022/08/29 10:47:58;;;;;;;6.65;2.63;;;24.50;99.90;;;;;;4988001;28;20103;-72
2022/08/29 10:50:33;;;;;;;6.40;2.55;;;24.60;99.90;;;;;;4993176;28;20054;-73
2022/08/29 10:53:23;;;;;;;9.30;2.80;;;24.90;99.90;;;;;;5007234;28;20045;-72
2022/08/29 10:55:55;;;;;;;10.77;3.15;;;25.10;99.90;;;;;;5011292;28;20029;-72
2022/08/29 10:58:42;;;;;;;;;;;25.10;99.80;;;;;;4986417;28;20041;-72
2022/08/29 11:01:40;;;;;;;11.00;2.90;;;24.90;99.90;;;;;;4992644;28;19918;-72
2022/08/29 11:04:17;;;;;;;9.00;3.05;;;24.60;99.90;;;;;;4987025;28;20416;-72
2022/08/29 11:06:58;;;;;;;9.52;2.70;;;24.40;99.90;;;;;;4990853;28;20041;-73
2022/08/29 11:09:29;;;;;;;7.90;2.50;;;24.30;99.90;;;;;;4991799;28;20042;-71
2022/08/29 11:12:15;;;;;;;7.28;2.80;;;24.10;99.90;;;;;;4993313;28;20154;-73
2022/08/29 11:15:29;;;;;;;13.82;2.80;;;23.90;99.90;;;;;;4986523;28;20548;-73
2022/08/29 11:18:17;;;;;;;9.63;2.78;;;23.80;99.90;;;;;;4972107;28;20505;-73
2022/08/29 11:20:49;;;;;;;8.25;2.65;;;23.70;99.90;;;;;;4973991;28;20046;-73
2022/08/29 11:23:36;;;;;;;11.30;2.92;;;23.60;99.90;;;;;;5009488;28;20045;-73
2022/08/29 11:26:27;;;;;;;14.07;3.55;;;23.50;99.90;;;;;;5005618;28;20070;-72
2022/08/29 11:29:19;;;;;;;10.93;2.80;;;23.40;99.90;;;;;;5002317;28;20061;-72
2022/08/29 11:32:23;;;;;;;10.98;3.30;;;23.20;99.90;;;;;;4974062;28;20048;-73
2022/08/29 11:35:19;;;;;;;10.88;2.95;;;23.20;99.90;;;;;;4990150;28;20120;-72
2022/08/29 11:38:03;;;;;;;8.55;3.15;;;23.20;99.90;;;;;;5006564;28;20489;-72
2022/08/29 11:40:55;;;;;;;8.77;2.95;;;23.20;99.90;;;;;;5008544;28;20038;-71
2022/08/29 11:43:34;;;;;;;9.98;3.40;;;23.30;99.90;;;;;;4988081;28;20515;-72
2022/08/29 11:46:06;;;;;;;10.98;3.45;;;23.30;99.90;;;;;;5004289;28;20042;-72
2022/08/29 11:48:41;;;;;;;11.05;3.50;;;23.20;99.90;;;;;;4985604;28;20580;-71
2022/08/29 11:51:35;;;;;;;11.55;3.75;;;23.20;99.90;;;;;;4990125;28;22133;-77
2022/08/29 11:54:23;;;;;;;9.65;3.45;;;23.10;99.90;;;;;;4993229;28;20489;-77
2022/08/29 11:56:50;;;;;;;9.98;3.00;;;23.10;99.90;;;;;;4990965;28;20139;-76
2022/08/29 11:59:43;;;;;;;10.55;3.00;;;23.10;99.90;;;;;;4992441;28;20444;-76
2022/08/29 12:02:29;;;;;;;6.25;2.53;;;23.00;99.90;;;;;;4974636;28;20117;-76
2022/08/29 12:05:15;;;;;;;11.70;3.28;;;23.00;99.90;;;;;;4990484;28;20037;-77
2022/08/29 12:07:48;;;;;;;9.88;2.85;;;23.00;99.90;;;;;;5001099;28;20703;-75
2022/08/29 12:10:22;;;;;;;9.27;2.63;;;23.10;99.90;;;;;;4989362;28;20056;-75
2022/08/29 12:12:51;;;;;;;9.52;2.92;;;23.20;99.90;;;;;;5002018;28;20095;-75
2022/08/29 12:15:25;;;;;;;7.53;3.00;;;23.30;99.90;;;;;;5001394;28;20045;-76
2022/08/29 12:17:56;;;;;;;6.57;2.33;;;23.20;99.90;;;;;;4988053;28;20086;-75
2022/08/29 12:20:42;;;;;;;10.57;2.80;;;23.20;99.90;;;;;;4985445;28;20493;-76
2022/08/29 12:23:11;;;;;;;8.77;2.88;;;23.10;99.90;;;;;;4985280;28;20115;-76
2022/08/29 12:25:43;;;;;;;8.65;3.25;;;23.10;99.90;;;;;;4988577;28;20549;-75
2022/08/29 12:28:25;;;;;;;;;;;23.20;99.90;;;;;;4970447;28;20045;-76
2022/08/29 12:30:57;;;;;;;9.02;2.67;;;23.20;99.90;;;;;;4959487;28;19917;-76
2022/08/29 12:33:41;;;;;;;10.07;3.13;;;23.30;99.90;;;;;;5002009;28;20076;-76
2022/08/29 12:36:15;;;;;;;8.23;3.05;;;23.30;99.90;;;;;;4987722;28;20033;-75
2022/08/29 12:39:02;;;;;;;8.75;2.72;;;23.30;99.90;;;;;;4989841;28;20029;-76
2022/08/29 12:41:28;;;;;;;8.13;2.60;;;23.30;99.90;;;;;;4987966;28;20081;-75
2022/08/29 12:43:58;;;;;;;9.90;3.03;;;23.30;99.90;;;;;;4984846;28;20405;-76
2022/08/29 12:46:31;;;;;;;10.23;2.80;;;23.20;99.90;;;;;;4986462;28;20420;-75
2022/08/29 12:49:17;;;;;;;14.65;3.63;;;23.30;99.90;;;;;;4991386;28;20046;-75
2022/08/29 12:51:48;;;;;;;8.70;2.80;;;23.30;99.90;;;;;;5002427;28;20041;-72
2022/08/29 12:54:14;;;;;;;9.70;3.03;;;23.40;99.90;;;;;;5005255;28;20046;-71
2022/08/29 12:56:48;;;;;;;11.32;2.75;;;23.40;99.90;;;;;;4986805;28;20547;-71
2022/08/29 12:59:18;;;;;;;9.02;2.75;;;23.40;99.90;;;;;;4985431;28;20049;-72
2022/08/29 13:01:48;;;;;;;10.02;3.13;;;23.40;99.90;;;;;;4986213;28;20045;-72
2022/08/29 13:04:17;;;;;;;7.72;3.00;;;23.30;99.90;;;;;;4985399;28;20053;-72
2022/08/29 13:07:02;;;;;;;5.70;2.50;;;23.30;99.90;;;;;;4999801;28;20045;-72
2022/08/29 13:09:39;;;;;;;9.48;3.00;;;23.30;99.90;;;;;;4987823;28;20044;-72
2022/08/29 13:12:15;;;;;;;10.18;3.33;;;23.30;99.90;;;;;;5001784;28;20053;-72